Time;durP1;ratioP1;P1;durP2;ratioP2;P2;SDS_P1;SDS_P2;PMS_P1;PMS_P2;Temp;Humidity;BMP_temperature;BMP_pressure;BME280_temperature;BME280_humidity;BME280_pressure;Samples;Min_cycle;Max_cycle;Signal;HPM_P1;HPM_P2
2023/05/07 00:00:18;;;;;;;8.93;3.47;;;;;;;;;;6270358;22;19995;-77
2023/05/07 00:02:44;;;;;;;6.15;3.53;;;;;;;;;;6269734;22;20035;-77
2023/05/07 00:05:10;;;;;;;7.18;3.53;;;;;;;;;;6270021;22;20003;-76
2023/05/07 00:07:35;;;;;;;7.78;3.50;;;;;;;;;;6271088;22;20000;-77
2023/05/07 00:10:02;;;;;;;9.73;3.70;;;;;;;;;;6272082;22;20022;-76
2023/05/07 00:12:27;;;;;;;5.55;3.50;;;;;;;;;;6271953;22;20000;-77
2023/05/07 00:14:53;;;;;;;9.00;3.55;;;;;;;;;;6271897;22;20340;-76
2023/05/07 00:17:18;;;;;;;7.80;3.22;;;;;;;;;;6271707;22;20010;-76
2023/05/07 00:19:43;;;;;;;7.85;3.65;;;;;;;;;;6271897;22;20008;-77
2023/05/07 00:22:09;;;;;;;7.43;3.42;;;;;;;;;;6271045;22;20073;-76
2023/05/07 00:24:34;;;;;;;9.43;3.35;;;;;;;;;;6271714;22;20074;-76
2023/05/07 00:27:00;;;;;;;9.25;3.28;;;;;;;;;;6271615;22;20022;-76
2023/05/07 00:29:25;;;;;;;7.47;3.60;;;;;;;;;;6272012;22;20428;-76
2023/05/07 00:31:51;;;;;;;9.15;3.25;;;;;;;;;;6271783;22;20004;-76
2023/05/07 00:34:16;;;;;;;9.70;3.38;;;;;;;;;;6271532;22;20010;-76
2023/05/07 00:36:42;;;;;;;7.43;3.40;;;;;;;;;;6270882;22;20003;-75
2023/05/07 00:39:07;;;;;;;8.88;3.30;;;;;;;;;;6271569;22;20008;-77
2023/05/07 00:41:32;;;;;;;8.88;3.28;;;;;;;;;;6271369;22;20011;-76
2023/05/07 00:43:58;;;;;;;8.50;3.33;;;;;;;;;;6272192;22;20003;-77
2023/05/07 00:46:24;;;;;;;7.80;3.50;;;;;;;;;;6271407;22;20440;-76
2023/05/07 00:48:53;;;;;;;10.57;3.85;;;;;;;;;;6271843;22;20004;-77
2023/05/07 00:51:19;;;;;;;9.00;3.40;;;;;;;;;;6243988;22;20095;-76
2023/05/07 00:53:46;;;;;;;8.73;3.50;;;;;;;;;;6271792;22;20027;-77
2023/05/07 00:56:11;;;;;;;9.90;3.42;;;;;;;;;;6271418;22;20007;-77
2023/05/07 00:58:37;;;;;;;9.10;3.78;;;;;;;;;;6271510;22;20003;-77
2023/05/07 01:01:03;;;;;;;9.38;3.30;;;;;;;;;;6271565;22;20339;-77
2023/05/07 01:03:28;;;;;;;10.95;3.47;;;;;;;;;;6271471;22;20042;-76
2023/05/07 01:05:57;;;;;;;9.60;3.50;;;;;;;;;;6244173;22;20008;-76
2023/05/07 01:08:24;;;;;;;9.52;3.40;;;;;;;;;;6271405;22;20004;-76
2023/05/07 01:10:51;;;;;;;10.20;3.78;;;;;;;;;;6271579;22;20371;-77
2023/05/07 01:13:18;;;;;;;8.50;3.20;;;;;;;;;;6243779;22;20343;-77
2023/05/07 01:15:43;;;;;;;9.82;3.33;;;;;;;;;;6271086;22;20000;-77
2023/05/07 01:18:09;;;;;;;6.38;2.90;;;;;;;;;;6271174;22;20027;-76
2023/05/07 01:20:34;;;;;;;8.13;3.40;;;;;;;;;;6244185;22;20014;-76
2023/05/07 01:23:01;;;;;;;9.98;3.33;;;;;;;;;;6270556;22;20535;-77
2023/05/07 01:25:26;;;;;;;9.63;3.35;;;;;;;;;;6271218;22;20004;-77
2023/05/07 01:27:52;;;;;;;13.25;3.50;;;;;;;;;;6271137;22;20440;-76
2023/05/07 01:30:20;;;;;;;7.35;2.88;;;;;;;;;;6271220;22;20408;-76
2023/05/07 01:33:10;;;;;;;14.18;3.00;;;;;;;;;;6270846;22;20030;-76
2023/05/07 01:35:40;;;;;;;10.73;2.78;;;;;;;;;;6270881;22;20012;-77
2023/05/07 01:38:06;;;;;;;9.85;3.03;;;;;;;;;;6270419;22;20464;-76
2023/05/07 01:40:33;;;;;;;10.13;2.90;;;;;;;;;;6271341;22;20000;-77
2023/05/07 01:43:00;;;;;;;10.40;3.30;;;;;;;;;;6270722;22;20007;-77
2023/05/07 01:45:25;;;;;;;7.82;2.80;;;;;;;;;;6271122;22;20336;-76
2023/05/07 01:47:52;;;;;;;13.40;3.30;;;;;;;;;;6271061;22;20547;-76
2023/05/07 01:50:19;;;;;;;8.98;2.75;;;;;;;;;;6271102;22;20003;-77
2023/05/07 01:52:44;;;;;;;9.98;2.72;;;;;;;;;;6270396;22;20650;-76
2023/05/07 01:55:10;;;;;;;8.88;2.40;;;;;;;;;;6270906;22;19999;-77
2023/05/07 01:57:35;;;;;;;9.68;2.63;;;;;;;;;;6270801;22;20071;-76
2023/05/07 02:00:06;;;;;;;12.45;2.80;;;;;;;;;;6271339;22;20004;-76
2023/05/07 02:02:31;;;;;;;8.15;2.30;;;;;;;;;;6270926;22;20011;-77
2023/05/07 02:04:56;;;;;;;7.93;2.50;;;;;;;;;;6243457;22;20445;-76
2023/05/07 02:07:22;;;;;;;9.43;2.63;;;;;;;;;;6243141;22;20085;-76
2023/05/07 02:09:47;;;;;;;8.88;2.45;;;;;;;;;;6270712;22;20000;-76
2023/05/07 02:12:13;;;;;;;10.40;2.50;;;;;;;;;;6270689;22;20032;-76
2023/05/07 02:14:38;;;;;;;10.65;2.47;;;;;;;;;;6270742;22;20054;-76
2023/05/07 02:17:03;;;;;;;12.48;2.50;;;;;;;;;;6270868;22;20046;-76
2023/05/07 02:19:29;;;;;;;7.95;2.35;;;;;;;;;;6270806;22;20045;-77
2023/05/07 02:21:55;;;;;;;8.43;2.60;;;;;;;;;;6270428;22;20003;-77
2023/05/07 02:24:20;;;;;;;7.57;2.20;;;;;;;;;;6270449;22;20008;-76
2023/05/07 02:26:46;;;;;;;6.38;2.25;;;;;;;;;;6270381;22;20003;-76
2023/05/07 02:29:11;;;;;;;6.55;2.30;;;;;;;;;;6270384;22;20006;-76
2023/05/07 02:31:36;;;;;;;10.40;2.40;;;;;;;;;;6270661;22;20004;-77
2023/05/07 02:34:02;;;;;;;7.00;2.30;;;;;;;;;;6270734;22;20004;-77
2023/05/07 02:36:27;;;;;;;8.27;2.65;;;;;;;;;;6270245;22;19995;-78
2023/05/07 02:38:53;;;;;;;8.55;2.50;;;;;;;;;;6270540;22;20019;-76
2023/05/07 02:41:20;;;;;;;13.23;2.67;;;;;;;;;;6270560;22;20004;-76
2023/05/07 02:43:45;;;;;;;8.30;2.30;;;;;;;;;;6242837;22;20007;-76
2023/05/07 02:46:11;;;;;;;10.27;2.30;;;;;;;;;;6270624;22;20006;-77
2023/05/07 02:48:36;;;;;;;9.52;1.95;;;;;;;;;;6270220;22;20002;-76
2023/05/07 02:51:03;;;;;;;11.52;2.60;;;;;;;;;;6270297;22;20371;-76
2023/05/07 02:53:29;;;;;;;10.95;2.13;;;;;;;;;;6270595;22;20000;-76
2023/05/07 02:55:59;;;;;;;9.48;2.40;;;;;;;;;;6270270;22;20004;-76
2023/05/07 02:58:24;;;;;;;6.37;2.13;;;;;;;;;;6270344;22;20003;-76
2023/05/07 03:00:50;;;;;;;7.93;2.30;;;;;;;;;;6243293;22;20376;-77
2023/05/07 03:03:16;;;;;;;11.05;2.40;;;;;;;;;;6270012;22;20046;-77
2023/05/07 03:05:42;;;;;;;12.43;2.50;;;;;;;;;;6270298;22;20000;-77
2023/05/07 03:08:08;;;;;;;8.23;2.30;;;;;;;;;;6242647;22;20014;-76
2023/05/07 03:10:33;;;;;;;7.93;2.10;;;;;;;;;;6270754;22;20355;-76
2023/05/07 03:12:59;;;;;;;12.35;2.50;;;;;;;;;;6270340;22;20065;-76
2023/05/07 03:15:25;;;;;;;8.05;2.25;;;;;;;;;;6270223;22;20057;-76
2023/05/07 03:17:50;;;;;;;11.60;2.50;;;;;;;;;;6270403;22;20008;-76
2023/05/07 03:20:16;;;;;;;8.27;2.30;;;;;;;;;;6270203;22;20003;-76
2023/05/07 03:22:41;;;;;;;9.43;2.67;;;;;;;;;;6269999;22;20008;-76
2023/05/07 03:25:07;;;;;;;10.65;2.40;;;;;;;;;;6269828;22;20000;-78
2023/05/07 03:27:32;;;;;;;7.70;2.10;;;;;;;;;;6270307;22;20784;-76
2023/05/07 03:29:58;;;;;;;7.65;2.15;;;;;;;;;;6243098;22;20012;-77
2023/05/07 03:32:23;;;;;;;9.60;2.55;;;;;;;;;;6270325;22;19996;-76
2023/05/07 03:34:49;;;;;;;12.23;2.50;;;;;;;;;;6270267;22;20008;-76
2023/05/07 03:37:15;;;;;;;9.88;2.47;;;;;;;;;;6269335;22;20042;-78
2023/05/07 03:39:40;;;;;;;10.40;2.80;;;;;;;;;;6270042;22;19995;-77
2023/05/07 03:42:05;;;;;;;8.20;2.50;;;;;;;;;;6271336;22;20010;-78
2023/05/07 03:44:31;;;;;;;6.95;2.30;;;;;;;;;;6272114;22;20007;-76
2023/05/07 03:46:56;;;;;;;10.25;2.28;;;;;;;;;;6244993;22;20014;-77
2023/05/07 03:49:22;;;;;;;9.90;2.40;;;;;;;;;;6272172;22;20003;-76
2023/05/07 03:51:50;;;;;;;13.80;2.78;;;;;;;;;;6244808;22;19999;-76
2023/05/07 03:54:15;;;;;;;8.27;2.72;;;;;;;;;;6271600;22;20022;-75
2023/05/07 03:56:41;;;;;;;9.60;2.33;;;;;;;;;;6271985;22;20348;-76
2023/05/07 03:59:06;;;;;;;11.13;2.50;;;;;;;;;;6271912;22;19996;-76
2023/05/07 04:01:32;;;;;;;10.18;2.55;;;;;;;;;;6272307;22;20004;-76
2023/05/07 04:03:58;;;;;;;11.13;2.60;;;;;;;;;;6272128;22;20020;-76
2023/05/07 04:06:24;;;;;;;13.00;2.58;;;;;;;;;;6244425;22;20038;-76
2023/05/07 04:08:49;;;;;;;9.05;2.40;;;;;;;;;;6271965;22;20022;-77
2023/05/07 04:11:15;;;;;;;7.57;2.20;;;;;;;;;;6271734;22;20502;-77
2023/05/07 04:13:40;;;;;;;9.43;2.63;;;;;;;;;;6244820;22;20004;-77
2023/05/07 04:16:06;;;;;;;11.05;2.65;;;;;;;;;;6271821;22;20068;-76
2023/05/07 04:18:31;;;;;;;13.65;3.00;;;;;;;;;;6272131;22;20004;-76
2023/05/07 04:20:57;;;;;;;10.88;2.83;;;;;;;;;;6271426;22;20423;-76
2023/05/07 04:23:22;;;;;;;9.13;2.35;;;;;;;;;;6271898;22;20057;-76
2023/05/07 04:25:48;;;;;;;9.07;2.30;;;;;;;;;;6271260;22;19999;-76
2023/05/07 04:28:13;;;;;;;12.75;2.58;;;;;;;;;;6271759;22;20003;-76
2023/05/07 04:30:39;;;;;;;8.80;2.35;;;;;;;;;;6271457;22;19996;-76
2023/05/07 04:33:06;;;;;;;10.02;2.75;;;;;;;;;;6271808;22;20004;-76
2023/05/07 04:35:32;;;;;;;10.40;2.38;;;;;;;;;;6271969;22;20000;-77
2023/05/07 04:37:57;;;;;;;9.05;2.47;;;;;;;;;;6270849;22;20012;-77
2023/05/07 04:40:22;;;;;;;10.30;2.53;;;;;;;;;;6271614;22;20019;-77
2023/05/07 04:42:48;;;;;;;8.50;2.35;;;;;;;;;;6271687;22;20004;-76
2023/05/07 04:45:14;;;;;;;10.98;2.53;;;;;;;;;;6271574;22;20347;-76
2023/05/07 04:47:39;;;;;;;8.43;2.28;;;;;;;;;;6271547;22;20000;-77
2023/05/07 04:50:09;;;;;;;13.00;2.30;;;;;;;;;;6271322;22;20049;-76
2023/05/07 04:52:35;;;;;;;7.70;2.20;;;;;;;;;;6270911;22;20010;-76
2023/05/07 04:55:00;;;;;;;9.32;2.25;;;;;;;;;;6271595;22;20082;-78
2023/05/07 04:57:27;;;;;;;11.88;2.60;;;;;;;;;;6271727;22;20030;-76
2023/05/07 04:59:53;;;;;;;10.70;2.13;;;;;;;;;;6271388;22;20015;-75
2023/05/07 05:02:18;;;;;;;10.88;2.33;;;;;;;;;;6271530;22;20455;-77
2023/05/07 05:04:44;;;;;;;9.73;2.28;;;;;;;;;;6271293;22;20003;-76
2023/05/07 05:07:10;;;;;;;12.05;2.85;;;;;;;;;;6271060;22;20027;-78
2023/05/07 05:09:35;;;;;;;9.75;2.42;;;;;;;;;;6271255;22;19996;-77
2023/05/07 05:12:00;;;;;;;12.27;2.50;;;;;;;;;;6271589;22;20078;-78
2023/05/07 05:14:26;;;;;;;8.68;2.58;;;;;;;;;;6271521;22;20000;-76
2023/05/07 05:16:51;;;;;;;11.10;2.50;;;;;;;;;;6271453;22;20007;-76
2023/05/07 05:19:17;;;;;;;15.63;2.50;;;;;;;;;;6271393;22;20031;-76
2023/05/07 05:21:42;;;;;;;7.55;2.47;;;;;;;;;;6270850;22;19995;-76
2023/05/07 05:24:08;;;;;;;14.63;2.90;;;;;;;;;;6271262;22;20000;-76
2023/05/07 05:26:33;;;;;;;14.98;2.70;;;;;;;;;;6270655;22;20008;-76
2023/05/07 05:28:59;;;;;;;12.07;2.15;;;;;;;;;;6271518;22;20077;-76
2023/05/07 05:31:24;;;;;;;8.35;2.17;;;;;;;;;;6271200;22;20325;-77
2023/05/07 05:33:50;;;;;;;10.57;2.47;;;;;;;;;;6271534;22;20416;-76
2023/05/07 05:36:15;;;;;;;12.95;2.85;;;;;;;;;;6270535;22;20078;-77
2023/05/07 05:38:40;;;;;;;11.10;2.47;;;;;;;;;;6271310;22;20007;-76
2023/05/07 05:41:06;;;;;;;11.30;2.78;;;;;;;;;;6242840;22;20004;-76
2023/05/07 05:43:31;;;;;;;10.70;2.35;;;;;;;;;;6271174;22;20417;-76
2023/05/07 05:45:57;;;;;;;10.00;2.55;;;;;;;;;;6271079;22;20147;-76
2023/05/07 05:48:23;;;;;;;10.32;2.40;;;;;;;;;;6271137;22;19996;-76
2023/05/07 05:50:49;;;;;;;13.32;2.90;;;;;;;;;;6243084;22;20088;-77
2023/05/07 05:53:14;;;;;;;11.23;2.60;;;;;;;;;;6271162;22;20003;-76
2023/05/07 05:55:40;;;;;;;13.57;2.70;;;;;;;;;;6271149;22;20027;-76
2023/05/07 05:58:05;;;;;;;11.70;3.20;;;;;;;;;;6271355;22;20440;-76
2023/05/07 06:00:31;;;;;;;14.05;2.40;;;;;;;;;;6270254;22;19999;-76
2023/05/07 06:02:57;;;;;;;13.10;2.50;;;;;;;;;;6270921;22;20008;-76
2023/05/07 06:05:22;;;;;;;13.38;2.75;;;;;;;;;;6270587;22;20000;-76
2023/05/07 06:07:47;;;;;;;13.05;2.80;;;;;;;;;;6270437;22;20019;-76
2023/05/07 06:10:13;;;;;;;10.75;2.60;;;;;;;;;;6270795;22;20598;-76
2023/05/07 06:12:38;;;;;;;10.88;2.67;;;;;;;;;;6271172;22;19996;-76
2023/05/07 06:15:04;;;;;;;14.38;2.97;;;;;;;;;;6270763;22;20436;-76
2023/05/07 06:17:30;;;;;;;13.32;2.90;;;;;;;;;;6270738;22;20344;-76
2023/05/07 06:19:55;;;;;;;7.68;1.92;;;;;;;;;;6270609;22;20387;-76
2023/05/07 06:22:21;;;;;;;7.60;2.35;;;;;;;;;;6270219;22;20073;-77
2023/05/07 06:24:47;;;;;;;15.13;2.78;;;;;;;;;;6271103;22;20055;-77
2023/05/07 06:27:12;;;;;;;11.07;2.63;;;;;;;;;;6270210;22;20068;-77
2023/05/07 06:29:37;;;;;;;11.38;2.90;;;;;;;;;;6244007;22;20003;-77
2023/05/07 06:32:10;;;;;;;8.27;2.35;;;;;;;;;;6270299;22;20061;-78
2023/05/07 06:34:36;;;;;;;11.70;2.55;;;;;;;;;;6270616;22;20010;-77
2023/05/07 06:37:02;;;;;;;12.40;2.72;;;;;;;;;;6269750;22;20000;-76
2023/05/07 06:39:27;;;;;;;13.52;2.80;;;;;;;;;;6087488;23;20017;-77
2023/05/07 06:41:53;;;;;;;10.85;2.63;;;;;;;;;;6187635;23;20085;-76
2023/05/07 06:44:19;;;;;;;12.27;2.60;;;;;;;;;;6087614;23;20002;-77
2023/05/07 06:46:44;;;;;;;9.13;2.60;;;;;;;;;;6087334;23;20005;-77
2023/05/07 06:49:11;;;;;;;8.38;2.30;;;;;;;;;;6087374;23;20013;-76
2023/05/07 06:51:36;;;;;;;9.52;2.75;;;;;;;;;;6086532;23;20025;-78
2023/05/07 06:54:02;;;;;;;10.05;2.78;;;;;;;;;;6213175;23;20056;-79
2023/05/07 06:56:27;;;;;;;11.65;3.10;;;;;;;;;;6087364;23;20105;-79
2023/05/07 06:58:52;;;;;;;9.23;2.50;;;;;;;;;;6087168;23;20006;-76
2023/05/07 07:01:18;;;;;;;13.32;2.72;;;;;;;;;;6086983;23;20014;-77
2023/05/07 07:03:43;;;;;;;10.18;2.53;;;;;;;;;;6087193;23;20569;-78
2023/05/07 07:06:09;;;;;;;14.10;2.97;;;;;;;;;;6086537;23;20081;-76
2023/05/07 07:08:34;;;;;;;12.55;2.83;;;;;;;;;;6086942;23;20060;-77
2023/05/07 07:11:00;;;;;;;12.43;2.72;;;;;;;;;;6087068;23;20552;-76
2023/05/07 07:13:25;;;;;;;13.43;2.80;;;;;;;;;;6086849;23;20085;-77
2023/05/07 07:15:52;;;;;;;13.23;2.67;;;;;;;;;;6088540;23;20014;-76
2023/05/07 07:18:18;;;;;;;10.98;3.22;;;;;;;;;;6089947;23;20013;-76
2023/05/07 07:20:44;;;;;;;11.13;2.97;;;;;;;;;;6090512;23;20081;-76
2023/05/07 07:23:09;;;;;;;13.07;2.90;;;;;;;;;;6089873;23;20436;-76
2023/05/07 07:25:35;;;;;;;8.98;2.95;;;;;;;;;;6089949;23;20466;-78
2023/05/07 07:28:01;;;;;;;12.00;2.80;;;;;;;;;;6089929;23;20053;-78
2023/05/07 07:30:26;;;;;;;10.40;2.78;;;;;;;;;;6090424;23;20037;-76
2023/05/07 07:32:52;;;;;;;8.25;2.70;;;;;;;;;;6190349;23;20007;-77
2023/05/07 07:35:18;;;;;;;10.60;2.97;;;;;;;;;;6090121;23;20100;-76
2023/05/07 07:37:43;;;;;;;16.05;2.80;;;;;;;;;;6140587;22;20091;-76
2023/05/07 07:40:09;;;;;;;12.75;2.67;;;;;;;;;;6273950;22;20023;-76
2023/05/07 07:42:34;;;;;;;13.80;3.13;;;;;;;;;;6273232;22;20471;-76
2023/05/07 07:45:00;;;;;;;11.80;2.70;;;;;;;;;;6273924;22;20000;-77
2023/05/07 07:47:25;;;;;;;12.20;2.80;;;;;;;;;;6246104;22;20409;-76
2023/05/07 07:49:51;;;;;;;11.30;2.58;;;;;;;;;;6273329;22;20003;-76
2023/05/07 07:52:16;;;;;;;11.50;2.55;;;;;;;;;;6273018;22;20035;-76
2023/05/07 07:54:42;;;;;;;12.00;2.70;;;;;;;;;;6273771;22;20098;-76
2023/05/07 07:57:08;;;;;;;10.82;2.35;;;;;;;;;;6273482;22;20023;-76
2023/05/07 07:59:33;;;;;;;9.80;2.75;;;;;;;;;;6273448;22;20065;-76
2023/05/07 08:01:58;;;;;;;11.05;2.60;;;;;;;;;;6273107;22;20043;-76
2023/05/07 08:04:24;;;;;;;11.75;2.60;;;;;;;;;;6273676;22;20416;-77
2023/05/07 08:06:49;;;;;;;8.93;2.67;;;;;;;;;;6273090;22;20075;-76
2023/05/07 08:09:15;;;;;;;10.23;2.35;;;;;;;;;;6273283;22;20535;-76
2023/05/07 08:11:40;;;;;;;7.22;2.30;;;;;;;;;;6273697;22;20019;-76
2023/05/07 08:14:06;;;;;;;12.55;3.45;;;;;;;;;;6273796;22;20008;-76
2023/05/07 08:16:31;;;;;;;13.07;3.38;;;;;;;;;;6273419;22;20003;-76
2023/05/07 08:18:57;;;;;;;11.75;3.00;;;;;;;;;;6273820;22;20008;-79
2023/05/07 08:21:23;;;;;;;11.02;2.60;;;;;;;;;;6273169;22;20004;-78
2023/05/07 08:23:48;;;;;;;10.77;3.05;;;;;;;;;;6273414;22;20008;-77
2023/05/07 08:26:14;;;;;;;10.88;2.70;;;;;;;;;;6273123;22;20011;-77
2023/05/07 08:28:39;;;;;;;10.77;2.63;;;;;;;;;;6271514;22;20039;-77
2023/05/07 08:31:05;;;;;;;9.30;2.60;;;;;;;;;;6272139;22;20034;-76
2023/05/07 08:33:30;;;;;;;11.55;2.70;;;;;;;;;;6271446;22;20024;-77
2023/05/07 08:35:56;;;;;;;11.57;2.72;;;;;;;;;;6271461;22;20424;-77
2023/05/07 08:38:21;;;;;;;10.40;2.50;;;;;;;;;;6271451;22;20043;-77
2023/05/07 08:40:47;;;;;;;12.95;2.90;;;;;;;;;;6244459;22;20420;-78
2023/05/07 08:43:14;;;;;;;10.02;2.50;;;;;;;;;;6271580;22;20057;-76
2023/05/07 08:45:41;;;;;;;10.57;2.78;;;;;;;;;;6271915;22;20008;-76
2023/05/07 08:48:13;;;;;;;11.57;2.67;;;;;;;;;;6271179;22;20078;-76
2023/05/07 08:50:39;;;;;;;11.38;2.70;;;;;;;;;;6272008;22;20000;-77
2023/05/07 08:53:05;;;;;;;6.68;2.35;;;;;;;;;;6271098;22;20412;-76
2023/05/07 08:55:31;;;;;;;11.15;2.47;;;;;;;;;;6271519;22;20011;-77
2023/05/07 08:57:56;;;;;;;8.98;2.42;;;;;;;;;;6271267;22;20012;-77
2023/05/07 09:00:22;;;;;;;10.55;2.63;;;;;;;;;;6271651;22;20077;-77
2023/05/07 09:02:48;;;;;;;9.90;2.20;;;;;;;;;;6271511;22;20082;-77
2023/05/07 09:05:13;;;;;;;11.45;2.67;;;;;;;;;;6271683;22;19999;-77
2023/05/07 09:07:39;;;;;;;11.18;2.75;;;;;;;;;;6270998;22;20015;-76
2023/05/07 09:10:05;;;;;;;8.68;2.17;;;;;;;;;;6271485;22;20008;-77
2023/05/07 09:12:31;;;;;;;10.57;2.42;;;;;;;;;;6271059;22;20034;-76
2023/05/07 09:14:57;;;;;;;13.65;2.92;;;;;;;;;;6271344;22;20003;-76
2023/05/07 09:17:22;;;;;;;12.82;2.65;;;;;;;;;;6271468;22;20464;-77
2023/05/07 09:19:50;;;;;;;8.90;2.33;;;;;;;;;;6271136;22;20082;-77
2023/05/07 09:22:16;;;;;;;14.43;2.95;;;;;;;;;;6270737;22;20004;-76
2023/05/07 09:24:47;;;;;;;8.60;2.70;;;;;;;;;;6271581;22;20471;-76
2023/05/07 09:27:13;;;;;;;12.43;2.50;;;;;;;;;;6270681;22;20345;-76
2023/05/07 09:29:38;;;;;;;16.33;2.38;;;;;;;;;;6271178;22;20077;-76
2023/05/07 09:32:06;;;;;;;7.00;2.22;;;;;;;;;;6271240;22;20411;-77
2023/05/07 09:34:31;;;;;;;8.50;2.10;;;;;;;;;;6271479;22;20079;-77
2023/05/07 09:37:07;;;;;;;11.93;2.33;;;;;;;;;;6243660;22;20490;-78
2023/05/07 09:39:43;;;;;;;11.27;2.40;;;;;;;;;;6270168;22;20078;-78
2023/05/07 09:42:09;;;;;;;8.63;2.40;;;;;;;;;;6271134;22;20043;-77
2023/05/07 09:44:35;;;;;;;11.77;2.55;;;;;;;;;;6270959;22;20065;-77
2023/05/07 09:47:05;;;;;;;11.13;2.58;;;;;;;;;;6271436;22;20031;-76
2023/05/07 09:49:34;;;;;;;14.68;2.85;;;;;;;;;;6270474;22;20004;-76
2023/05/07 09:52:01;;;;;;;10.93;2.50;;;;;;;;;;6270738;22;20004;-78
2023/05/07 09:54:30;;;;;;;11.98;2.60;;;;;;;;;;6270983;22;20003;-77
2023/05/07 09:56:57;;;;;;;10.80;2.40;;;;;;;;;;6271431;22;20519;-77
2023/05/07 09:59:22;;;;;;;11.20;2.55;;;;;;;;;;6270378;22;20031;-76
2023/05/07 10:01:49;;;;;;;12.45;2.72;;;;;;;;;;6271440;22;20031;-76
2023/05/07 10:04:15;;;;;;;11.55;2.80;;;;;;;;;;6271202;22;20068;-77
2023/05/07 10:06:42;;;;;;;11.32;2.70;;;;;;;;;;6271325;22;20091;-76
2023/05/07 10:09:09;;;;;;;8.02;2.22;;;;;;;;;;6270792;22;20078;-76
2023/05/07 10:11:35;;;;;;;8.95;2.70;;;;;;;;;;6271060;22;20004;-77
2023/05/07 10:14:02;;;;;;;12.82;2.72;;;;;;;;;;6270597;22;20067;-75
2023/05/07 10:16:36;;;;;;;13.45;3.20;;;;;;;;;;6271552;22;19999;-77
2023/05/07 10:19:05;;;;;;;10.68;2.47;;;;;;;;;;6270623;22;20004;-78
2023/05/07 10:21:35;;;;;;;9.98;2.53;;;;;;;;;;6270527;22;20030;-78
2023/05/07 10:24:24;;;;;;;9.98;2.47;;;;;;;;;;6270635;22;20617;-77
2023/05/07 10:26:52;;;;;;;10.73;2.33;;;;;;;;;;6243640;22;20019;-75
2023/05/07 10:29:26;;;;;;;13.95;2.47;;;;;;;;;;6270691;22;20000;-77
2023/05/07 10:32:10;;;;;;;11.88;2.60;;;;;;;;;;6270552;22;20004;-76
2023/05/07 10:34:43;;;;;;;11.57;2.72;;;;;;;;;;6270642;22;20066;-76
2023/05/07 10:37:10;;;;;;;12.05;2.83;;;;;;;;;;6270242;22;20023;-77
2023/05/07 10:39:35;;;;;;;14.13;2.60;;;;;;;;;;6270312;22;20004;-76
2023/05/07 10:42:08;;;;;;;11.18;2.78;;;;;;;;;;6270821;22;20003;-76
2023/05/07 10:44:35;;;;;;;12.55;2.85;;;;;;;;;;6270192;22;20385;-76
2023/05/07 10:47:11;;;;;;;10.32;2.72;;;;;;;;;;6271072;22;20031;-77
2023/05/07 10:50:06;;;;;;;8.10;2.50;;;;;;;;;;6270030;22;19999;-77
2023/05/07 10:52:31;;;;;;;11.05;2.60;;;;;;;;;;6270118;22;20003;-77
2023/05/07 10:55:15;;;;;;;13.63;3.05;;;;;;;;;;6243097;22;20464;-77
2023/05/07 10:57:40;;;;;;;11.65;2.72;;;;;;;;;;6270937;22;20418;-77
2023/05/07 11:00:15;;;;;;;8.85;2.30;;;;;;;;;;6270080;22;20100;-77
2023/05/07 11:02:59;;;;;;;13.40;2.70;;;;;;;;;;6270482;22;20071;-78
2023/05/07 11:05:24;;;;;;;11.73;2.83;;;;;;;;;;6270508;22;20038;-78
2023/05/07 11:08:01;;;;;;;15.38;3.28;;;;;;;;;;6243032;22;20007;-78
2023/05/07 11:10:48;;;;;;;19.60;3.28;;;;;;;;;;6270560;22;20031;-77
2023/05/07 11:13:15;;;;;;;11.32;3.03;;;;;;;;;;6270628;22;20026;-77
2023/05/07 11:15:43;;;;;;;12.27;2.72;;;;;;;;;;6270219;22;20466;-77
2023/05/07 11:18:10;;;;;;;10.18;2.70;;;;;;;;;;6270905;22;20007;-78
2023/05/07 11:20:53;;;;;;;12.65;2.45;;;;;;;;;;6270175;22;20014;-77
2023/05/07 11:23:34;;;;;;;10.23;2.33;;;;;;;;;;6270527;22;20008;-77
2023/05/07 11:26:03;;;;;;;8.82;2.63;;;;;;;;;;6270622;22;20278;-78
2023/05/07 11:28:30;;;;;;;11.98;2.70;;;;;;;;;;6270321;22;20433;-77
2023/05/07 11:30:56;;;;;;;10.77;2.80;;;;;;;;;;6270076;22;20010;-76
2023/05/07 11:33:22;;;;;;;13.82;2.60;;;;;;;;;;6270358;22;20113;-76
2023/05/07 11:35:48;;;;;;;11.43;2.45;;;;;;;;;;6269836;22;20053;-77
2023/05/07 11:38:13;;;;;;;9.23;2.58;;;;;;;;;;6270294;22;20046;-77
2023/05/07 11:40:51;;;;;;;10.05;2.28;;;;;;;;;;6270238;22;20031;-78
2023/05/07 11:43:17;;;;;;;8.18;2.53;;;;;;;;;;6270522;22;20031;-76
2023/05/07 11:45:42;;;;;;;7.00;2.30;;;;;;;;;;6242950;22;20010;-77
2023/05/07 11:48:08;;;;;;;11.90;2.40;;;;;;;;;;6270416;22;20003;-76
2023/05/07 11:50:33;;;;;;;10.02;2.35;;;;;;;;;;6269862;22;20031;-76
2023/05/07 11:52:59;;;;;;;11.02;2.10;;;;;;;;;;6242734;22;20004;-76
2023/05/07 11:55:25;;;;;;;9.40;2.20;;;;;;;;;;6269955;22;20003;-76
2023/05/07 11:57:51;;;;;;;9.00;2.20;;;;;;;;;;6270229;22;20304;-78
2023/05/07 12:00:17;;;;;;;9.60;2.20;;;;;;;;;;6270228;22;20003;-77
2023/05/07 12:02:43;;;;;;;11.30;2.60;;;;;;;;;;6244088;22;20561;-77
2023/05/07 12:05:09;;;;;;;10.38;2.35;;;;;;;;;;6271818;22;20075;-77
2023/05/07 12:07:35;;;;;;;10.57;1.92;;;;;;;;;;6272190;22;20027;-76
2023/05/07 12:10:04;;;;;;;8.77;2.30;;;;;;;;;;6271785;22;20023;-77
2023/05/07 12:12:30;;;;;;;10.35;2.45;;;;;;;;;;6272270;22;20061;-76
2023/05/07 12:14:55;;;;;;;8.90;2.35;;;;;;;;;;6272168;22;20000;-76
2023/05/07 12:17:21;;;;;;;11.05;2.10;;;;;;;;;;6272023;22;20371;-77
2023/05/07 12:19:47;;;;;;;8.52;1.92;;;;;;;;;;6271864;22;20011;-77
2023/05/07 12:22:13;;;;;;;7.43;2.05;;;;;;;;;;6271587;22;19996;-77
2023/05/07 12:24:49;;;;;;;7.90;2.30;;;;;;;;;;6271772;22;20014;-78
2023/05/07 12:27:15;;;;;;;10.07;2.38;;;;;;;;;;6272056;22;20010;-76
2023/05/07 12:29:46;;;;;;;12.00;2.20;;;;;;;;;;6271575;22;20007;-77
2023/05/07 12:32:18;;;;;;;15.27;2.15;;;;;;;;;;6271968;22;20031;-78
2023/05/07 12:34:45;;;;;;;7.68;2.00;;;;;;;;;;6271834;22;20030;-78
2023/05/07 12:37:12;;;;;;;9.70;2.10;;;;;;;;;;6244063;22;20039;-77
2023/05/07 12:39:37;;;;;;;7.50;2.15;;;;;;;;;;6271939;22;20301;-77
2023/05/07 12:42:03;;;;;;;8.57;1.80;;;;;;;;;;6244369;22;20408;-76
2023/05/07 12:44:30;;;;;;;9.80;2.05;;;;;;;;;;6271445;22;20022;-77
2023/05/07 12:46:56;;;;;;;9.25;2.05;;;;;;;;;;6271782;22;20011;-77
2023/05/07 12:49:21;;;;;;;7.63;1.70;;;;;;;;;;6271402;22;19999;-76
2023/05/07 12:51:48;;;;;;;8.52;2.25;;;;;;;;;;6270853;22;20022;-76
2023/05/07 12:54:27;;;;;;;7.25;1.98;;;;;;;;;;6271821;22;20000;-76
2023/05/07 12:57:00;;;;;;;9.23;2.13;;;;;;;;;;6271772;22;20004;-77
2023/05/07 12:59:37;;;;;;;9.23;2.13;;;;;;;;;;6271660;22;20053;-77
2023/05/07 13:02:04;;;;;;;9.52;2.15;;;;;;;;;;6271520;22;20110;-76
2023/05/07 13:04:29;;;;;;;8.95;1.98;;;;;;;;;;6271354;22;20004;-77
2023/05/07 13:06:55;;;;;;;11.80;2.10;;;;;;;;;;6271458;22;20004;-76
2023/05/07 13:09:20;;;;;;;6.30;2.00;;;;;;;;;;6271612;22;20000;-76
2023/05/07 13:11:45;;;;;;;12.52;2.28;;;;;;;;;;6271385;22;20046;-77
2023/05/07 13:14:12;;;;;;;10.50;1.77;;;;;;;;;;6271383;22;20007;-77
2023/05/07 13:16:37;;;;;;;6.05;1.77;;;;;;;;;;6271152;22;20000;-76
2023/05/07 13:19:03;;;;;;;8.48;1.90;;;;;;;;;;6271630;22;19999;-77
2023/05/07 13:21:31;;;;;;;7.68;1.77;;;;;;;;;;6270505;22;20011;-80
2023/05/07 13:23:57;;;;;;;9.00;1.80;;;;;;;;;;6271580;22;20011;-80
2023/05/07 13:26:23;;;;;;;9.85;1.70;;;;;;;;;;6271330;22;20074;-79
2023/05/07 13:28:48;;;;;;;6.88;1.90;;;;;;;;;;6271217;22;20023;-78
2023/05/07 13:31:14;;;;;;;4.85;1.50;;;;;;;;;;6243746;22;20027;-76
2023/05/07 13:33:39;;;;;;;6.93;1.70;;;;;;;;;;6271366;22;20006;-80
2023/05/07 13:36:05;;;;;;;7.55;1.90;;;;;;;;;;6270159;22;20062;-76
2023/05/07 13:38:31;;;;;;;7.05;1.73;;;;;;;;;;6271041;22;20471;-77
2023/05/07 13:40:56;;;;;;;8.25;1.77;;;;;;;;;;6270651;22;20011;-78
2023/05/07 13:43:21;;;;;;;8.55;1.73;;;;;;;;;;6271536;22;20012;-77
2023/05/07 13:45:47;;;;;;;7.13;1.70;;;;;;;;;;6271059;22;19999;-77
2023/05/07 13:48:12;;;;;;;5.55;1.70;;;;;;;;;;6243134;22;20514;-77
2023/05/07 13:50:38;;;;;;;7.15;1.80;;;;;;;;;;6271050;22;20435;-77
2023/05/07 13:53:03;;;;;;;10.80;2.05;;;;;;;;;;6270529;22;20482;-78
2023/05/07 13:55:29;;;;;;;10.35;2.33;;;;;;;;;;6270813;22;20057;-76
2023/05/07 13:57:57;;;;;;;8.73;1.85;;;;;;;;;;6271089;22;20079;-77
2023/05/07 14:00:23;;;;;;;6.25;1.77;;;;;;;;;;6271018;22;20007;-79
2023/05/07 14:02:48;;;;;;;9.30;1.88;;;;;;;;;;6270631;22;20061;-76
2023/05/07 14:05:14;;;;;;;7.97;1.80;;;;;;;;;;6270989;22;20004;-77
2023/05/07 14:07:39;;;;;;;8.85;2.10;;;;;;;;;;6270745;22;20003;-76
2023/05/07 14:10:05;;;;;;;6.78;1.65;;;;;;;;;;6271066;22;20000;-77
2023/05/07 14:12:32;;;;;;;11.20;1.98;;;;;;;;;;6270556;22;20057;-76
2023/05/07 14:14:57;;;;;;;7.80;1.80;;;;;;;;;;6243698;22;20014;-78
2023/05/07 14:17:25;;;;;;;12.80;1.73;;;;;;;;;;6270698;22;20019;-76
2023/05/07 14:19:50;;;;;;;6.00;1.58;;;;;;;;;;6270751;22;20333;-76
2023/05/07 14:22:16;;;;;;;9.65;2.03;;;;;;;;;;6269854;22;20418;-76
2023/05/07 14:24:41;;;;;;;8.48;1.70;;;;;;;;;;6270848;22;20004;-76
2023/05/07 14:27:07;;;;;;;5.57;1.80;;;;;;;;;;6270655;22;20014;-78
2023/05/07 14:29:32;;;;;;;6.55;1.75;;;;;;;;;;6271066;22;20301;-77
2023/05/07 14:31:58;;;;;;;7.03;1.65;;;;;;;;;;6270396;22;19999;-76